»·PEaware :: FDX1488 KDAL-KSFO

FDX1488 :: KDAL-KSFO

FLIGHT INFORMATION

Flight Status: Arrived
Operator:
Federal Express
More flights by this operator :: More flights under this callsign
Pilot: Anonymous 5456 (5456)
Aircraft: BOEING 767-300
(B763)
More flights by this aircraft type
Origin: KDAL Dallas Love
United States
Destination: KSFO San Francisco Intl
United States
More flights between these airports :: More routes between these airports
Route: +MOD6
File this flight plan on PilotEdge
Remarks:
Altitude:
(Current/Filed)
36,000ft
Speed:
(Current/Filed)
480kts
Departed: 04-Dec-16 02:20 PM
Arrived: 04-Dec-16 05:37 PM
Distance/Time
Traveled:
1280nm/3:17
Distance/Time
To Go:
Arrived

Flight Plot

Page will automatically refresh every two minutes.

Flight plan parsing failed; only flown route is shown


Map Options




Map Legend


Flown Route
Filed Route
Departure Airport
Arrival Airport
Navaid (VOR, NDB)
Fix

Horizontal Profiles

Position Reports

Time Latitude Longitude Heading Altitude Ground
Speed
04-Dec-16 14:02 32.851261 -96.847015 315 497ft 0kts
04-Dec-16 14:03 32.851261 -96.847015 315 497ft 0kts
04-Dec-16 14:04 32.851261 -96.847015 315 497ft 0kts
04-Dec-16 14:05 32.851261 -96.847015 315 497ft 0kts
04-Dec-16 14:06 32.851261 -96.847015 315 497ft 0kts
04-Dec-16 14:07 32.851498 -96.847261 308 497ft 4kts
04-Dec-16 14:08 32.850000 -96.846507 136 497ft 11kts
04-Dec-16 14:09 32.847755 -96.843933 135 497ft 14kts
04-Dec-16 14:10 32.844594 -96.840285 134 497ft 17kts
04-Dec-16 14:11 32.842875 -96.838497 195 497ft 0kts
04-Dec-16 14:12 32.842365 -96.839443 302 497ft 2kts
04-Dec-16 14:13 32.858045 -96.857786 315 1012ft 167kts
04-Dec-16 14:14 32.893958 -96.896645 336 2751ft 226kts
04-Dec-16 14:15 32.956509 -96.883386 13 5873ft 255kts
04-Dec-16 14:16 33.010902 -96.911367 279 9113ft 261kts
04-Dec-16 14:17 32.996118 -97.000841 269 11033ft 331kts
04-Dec-16 14:18 33.008838 -97.109092 281 14713ft 347kts
04-Dec-16 14:19 33.029580 -97.218099 280 18391ft 350kts
04-Dec-16 14:20 33.052292 -97.333421 277 21231ft 368kts
04-Dec-16 14:21 33.076110 -97.454686 275 23703ft 387kts
04-Dec-16 14:22 33.100569 -97.579869 274 26091ft 399kts
04-Dec-16 14:23 33.124918 -97.703704 273 28076ft 410kts
04-Dec-16 14:24 33.151037 -97.837644 272 29844ft 423kts
04-Dec-16 14:25 33.177557 -97.975601 272 31462ft 435kts
04-Dec-16 14:26 33.204305 -98.115615 272 33403ft 433kts
04-Dec-16 14:27 33.230702 -98.254861 271 35075ft 429kts
04-Dec-16 14:28 33.256476 -98.391837 272 36096ft 427kts
04-Dec-16 14:29 33.281932 -98.527923 272 36088ft 424kts
04-Dec-16 14:30 33.306764 -98.661484 272 36093ft 424kts
04-Dec-16 14:31 33.332087 -98.795995 272 36101ft 428kts
04-Dec-16 14:32 33.357458 -98.933747 272 36099ft 429kts
04-Dec-16 14:33 33.382528 -99.071253 272 36099ft 428kts
04-Dec-16 14:34 33.407535 -99.209271 272 36097ft 429kts
04-Dec-16 14:35 33.432359 -99.347250 273 36098ft 431kts
04-Dec-16 14:36 33.457286 -99.486691 272 36118ft 431kts
04-Dec-16 14:37 33.493001 -99.625720 278 36121ft 439kts
04-Dec-16 14:38 33.531277 -99.762083 278 36127ft 439kts
04-Dec-16 14:39 33.569862 -99.901445 278 36126ft 442kts
04-Dec-16 14:40 33.608386 -100.041617 278 36130ft 441kts
04-Dec-16 14:41 33.646632 -100.181536 278 36129ft 442kts
04-Dec-16 14:42 33.702469 -100.316524 290 36132ft 460kts
04-Dec-16 14:43 33.765357 -100.450348 290 36127ft 457kts
04-Dec-16 14:44 33.827779 -100.583446 290 36126ft 458kts
04-Dec-16 14:45 33.889916 -100.715594 290 36134ft 457kts
04-Dec-16 14:46 33.952311 -100.849161 291 36132ft 461kts
04-Dec-16 14:47 34.014617 -100.983422 291 36118ft 460kts
04-Dec-16 14:48 34.076724 -101.117851 291 36115ft 460kts
04-Dec-16 14:49 34.137547 -101.250000 291 36102ft 460kts
04-Dec-16 14:50 34.199671 -101.385543 292 36101ft 464kts
04-Dec-16 14:51 34.262086 -101.522204 293 36106ft 463kts
04-Dec-16 14:52 34.323862 -101.657991 293 36101ft 464kts
04-Dec-16 14:53 34.386195 -101.794292 294 36112ft 467kts
04-Dec-16 14:54 34.448735 -101.932669 294 36110ft 468kts
04-Dec-16 14:55 34.511102 -102.071381 294 36114ft 468kts
04-Dec-16 14:56 34.573228 -102.210136 294 36117ft 468kts
04-Dec-16 14:57 34.635191 -102.349123 295 36109ft 470kts
04-Dec-16 14:58 34.697073 -102.488420 295 36108ft 468kts
04-Dec-16 14:59 34.758728 -102.627816 295 36110ft 467kts
04-Dec-16 15:00 34.819893 -102.765409 295 36112ft 466kts
04-Dec-16 15:01 34.881144 -102.904775 295 36111ft 467kts
04-Dec-16 15:02 34.942147 -103.044356 295 36116ft 467kts
04-Dec-16 15:03 35.003035 -103.184274 295 36076ft 467kts
04-Dec-16 15:04 35.063559 -103.323937 295 36073ft 465kts
04-Dec-16 15:05 35.122970 -103.461593 295 36069ft 464kts
04-Dec-16 15:06 35.182540 -103.600876 293 36067ft 462kts
04-Dec-16 15:07 35.235875 -103.742426 292 36073ft 462kts
04-Dec-16 15:08 35.288256 -103.883248 292 36075ft 451kts
04-Dec-16 15:09 35.339836 -104.022982 292 36074ft 451kts
04-Dec-16 15:10 35.391272 -104.162980 292 36072ft 451kts
04-Dec-16 15:11 35.442495 -104.303048 292 36072ft 449kts
04-Dec-16 15:12 35.484892 -104.419401 292 36078ft 449kts
04-Dec-16 15:13 35.535626 -104.559228 292 36076ft 449kts
04-Dec-16 15:14 35.586076 -104.698153 292 36084ft 449kts
04-Dec-16 15:15 35.636640 -104.837802 292 36084ft 448kts
04-Dec-16 15:16 35.686781 -104.977752 292 36082ft 448kts
04-Dec-16 15:17 35.736797 -105.118076 292 36081ft 448kts
04-Dec-16 15:18 35.786301 -105.257588 292 36081ft 443kts
04-Dec-16 15:19 35.835283 -105.396278 292 36078ft 443kts
04-Dec-16 15:20 35.884259 -105.535567 292 36117ft 445kts
04-Dec-16 15:21 35.932579 -105.673403 291 37295ft 444kts
04-Dec-16 15:22 35.981411 -105.812085 291 38137ft 442kts
04-Dec-16 15:23 36.029682 -105.951052 291 38138ft 441kts
04-Dec-16 15:24 36.077885 -106.090627 291 38135ft 441kts
04-Dec-16 15:25 36.122742 -106.221112 291 38135ft 441kts
04-Dec-16 15:26 36.170626 -106.361035 291 38133ft 442kts
04-Dec-16 15:27 36.217966 -106.499993 291 38133ft 442kts
04-Dec-16 15:28 36.265588 -106.640427 291 38132ft 439kts
04-Dec-16 15:29 36.312637 -106.778219 291 38138ft 441kts
04-Dec-16 15:30 36.359546 -106.917551 291 38136ft 441kts
04-Dec-16 15:31 36.406573 -107.058160 291 38137ft 441kts
04-Dec-16 15:32 36.453331 -107.198652 291 38136ft 441kts
04-Dec-16 15:33 36.500093 -107.339842 291 38135ft 442kts
04-Dec-16 15:34 36.546587 -107.480863 291 38145ft 442kts
04-Dec-16 15:35 36.592904 -107.622033 291 38152ft 442kts
04-Dec-16 15:36 36.638805 -107.761031 291 38156ft 442kts
04-Dec-16 15:37 36.684904 -107.902507 291 38155ft 443kts
04-Dec-16 15:38 36.730850 -108.044539 291 38154ft 442kts
04-Dec-16 15:39 36.772281 -108.187944 288 38151ft 439kts
04-Dec-16 15:40 36.811049 -108.332464 288 38152ft 438kts
04-Dec-16 15:41 36.849338 -108.476119 288 38151ft 439kts
04-Dec-16 15:42 36.887575 -108.620416 288 38150ft 438kts
04-Dec-16 15:43 36.925606 -108.762842 288 38160ft 438kts
04-Dec-16 15:44 36.963510 -108.907001 288 38172ft 437kts
04-Dec-16 15:45 37.001140 -109.051344 288 38169ft 437kts
04-Dec-16 15:46 37.038671 -109.196185 288 38170ft 437kts
04-Dec-16 15:47 37.075982 -109.341011 288 38214ft 438kts
04-Dec-16 15:48 37.112061 -109.481831 288 38218ft 438kts
04-Dec-16 15:49 37.148919 -109.626530 288 38216ft 438kts
04-Dec-16 15:50 37.185283 -109.768055 288 38223ft 437kts
04-Dec-16 15:51 37.222037 -109.913515 288 38223ft 437kts
04-Dec-16 15:52 37.258464 -110.058974 288 38223ft 433kts
04-Dec-16 15:53 37.294106 -110.202139 288 38218ft 432kts
04-Dec-16 15:54 37.329436 -110.344926 288 38216ft 427kts
04-Dec-16 15:55 37.364509 -110.487437 289 38216ft 428kts
04-Dec-16 15:56 37.399464 -110.630328 289 38122ft 427kts
04-Dec-16 15:57 37.433664 -110.768829 288 38133ft 426kts
04-Dec-16 15:58 37.468037 -110.910485 288 38128ft 425kts
04-Dec-16 15:59 37.502082 -111.052046 288 38128ft 425kts
04-Dec-16 16:00 37.536122 -111.194472 288 38126ft 425kts
04-Dec-16 16:01 37.569825 -111.336362 289 38133ft 423kts
04-Dec-16 16:02 37.603508 -111.478976 289 38131ft 423kts
04-Dec-16 16:03 37.636744 -111.620565 289 38130ft 423kts
04-Dec-16 16:04 37.669934 -111.760676 288 38139ft 423kts
04-Dec-16 16:05 37.702923 -111.902329 288 38136ft 423kts
04-Dec-16 16:06 37.735743 -112.044625 288 38134ft 423kts
04-Dec-16 16:07 37.768226 -112.186369 288 38130ft 419kts
04-Dec-16 16:08 37.800321 -112.327322 288 38126ft 415kts
04-Dec-16 16:09 37.831949 -112.467025 288 38127ft 416kts
04-Dec-16 16:10 37.863522 -112.607358 288 38127ft 416kts
04-Dec-16 16:11 37.894619 -112.744404 288 38080ft 416kts
04-Dec-16 16:12 37.925743 -112.883675 288 38083ft 412kts
04-Dec-16 16:13 37.956523 -113.022914 288 38075ft 411kts
04-Dec-16 16:14 37.987215 -113.162714 288 38077ft 411kts
04-Dec-16 16:15 38.017579 -113.301937 288 38071ft 406kts
04-Dec-16 16:16 38.047535 -113.440059 288 38068ft 408kts
04-Dec-16 16:17 38.077372 -113.578524 288 38033ft 408kts
04-Dec-16 16:18 38.106500 -113.713008 288 38090ft 408kts
04-Dec-16 16:19 38.136184 -113.851206 287 38090ft 407kts
04-Dec-16 16:20 38.165346 -113.988957 287 38047ft 407kts
04-Dec-16 16:21 38.194438 -114.127397 287 38047ft 407kts
04-Dec-16 16:22 38.218391 -114.242059 287 38045ft 407kts
04-Dec-16 16:23 38.245474 -114.381771 280 38037ft 411kts
04-Dec-16 16:24 38.240940 -114.528404 271 38066ft 417kts
04-Dec-16 16:25 38.232116 -114.672815 270 38076ft 417kts
04-Dec-16 16:26 38.223794 -114.819818 271 38081ft 415kts
04-Dec-16 16:27 38.215269 -114.965676 270 38076ft 415kts
04-Dec-16 16:28 38.205912 -115.111486 270 38073ft 415kts
04-Dec-16 16:29 38.196313 -115.257022 270 38074ft 415kts
04-Dec-16 16:30 38.186504 -115.402830 270 38071ft 413kts
04-Dec-16 16:31 38.176544 -115.548150 270 38069ft 414kts
04-Dec-16 16:32 38.166769 -115.690931 270 38122ft 414kts
04-Dec-16 16:33 38.156920 -115.835218 270 38117ft 412kts
04-Dec-16 16:34 38.146545 -115.979483 270 38114ft 412kts
04-Dec-16 16:35 38.135874 -116.124753 270 38112ft 412kts
04-Dec-16 16:36 38.125055 -116.269505 270 38110ft 412kts
04-Dec-16 16:37 38.114078 -116.413913 270 38108ft 412kts
04-Dec-16 16:38 38.102901 -116.558626 270 38103ft 412kts
04-Dec-16 16:39 38.092094 -116.699414 270 38122ft 412kts
04-Dec-16 16:40 38.080905 -116.844152 269 38114ft 413kts
04-Dec-16 16:41 38.069207 -116.989099 269 38114ft 413kts
04-Dec-16 16:42 38.057338 -117.133526 269 38112ft 413kts
04-Dec-16 16:43 38.045224 -117.278626 269 38110ft 411kts
04-Dec-16 16:44 38.033075 -117.422059 269 38107ft 411kts
04-Dec-16 16:45 38.020691 -117.566147 269 38107ft 411kts
04-Dec-16 16:46 38.008774 -117.706046 269 38121ft 411kts
04-Dec-16 16:47 37.995255 -117.848305 268 38116ft 410kts
04-Dec-16 16:48 37.980235 -117.990548 268 38101ft 410kts
04-Dec-16 16:49 37.965007 -118.133473 269 38096ft 409kts
04-Dec-16 16:50 37.964116 -118.274837 262 38181ft 413kts
04-Dec-16 16:51 37.932434 -118.413399 273 38181ft 402kts
04-Dec-16 16:52 37.920993 -118.554525 268 38172ft 407kts
04-Dec-16 16:53 37.904435 -118.693294 267 38187ft 408kts
04-Dec-16 16:54 37.888474 -118.828991 267 38173ft 407kts
04-Dec-16 16:55 37.872376 -118.970231 267 38170ft 408kts
04-Dec-16 16:56 37.856012 -119.111750 267 38170ft 407kts
04-Dec-16 16:57 37.839519 -119.252791 267 38168ft 408kts
04-Dec-16 16:58 37.822702 -119.395066 267 38175ft 409kts
04-Dec-16 16:59 37.805777 -119.536868 267 38139ft 409kts
04-Dec-16 17:00 37.788945 -119.677046 267 38154ft 409kts
04-Dec-16 17:01 37.772250 -119.817859 267 38191ft 406kts
04-Dec-16 17:02 37.756019 -119.949926 267 36957ft 376kts
04-Dec-16 17:03 37.739775 -120.081314 266 33798ft 392kts
04-Dec-16 17:04 37.722615 -120.218108 266 30722ft 402kts
04-Dec-16 17:05 37.705046 -120.356675 265 28064ft 400kts
04-Dec-16 17:06 37.687683 -120.492296 265 26039ft 381kts
04-Dec-16 17:07 37.671132 -120.620653 265 24406ft 369kts
04-Dec-16 17:08 37.656345 -120.737178 264 22959ft 359kts
04-Dec-16 17:09 37.640398 -120.859550 264 21396ft 350kts
04-Dec-16 17:10 37.625113 -120.977943 266 20161ft 340kts
04-Dec-16 17:11 37.611869 -121.095503 265 20163ft 342kts
04-Dec-16 17:12 37.598147 -121.215526 265 17919ft 329kts
04-Dec-16 17:13 37.585595 -121.325146 265 15424ft 327kts
04-Dec-16 17:14 37.572673 -121.436369 265 13670ft 318kts
04-Dec-16 17:15 37.559941 -121.545214 265 12034ft 316kts
04-Dec-16 17:16 37.544178 -121.650314 257 11008ft 315kts
04-Dec-16 17:17 37.520886 -121.749847 257 9569ft 251kts
04-Dec-16 17:18 37.502083 -121.828712 258 8574ft 236kts
04-Dec-16 17:19 37.491344 -121.907158 273 8019ft 227kts
04-Dec-16 17:20 37.490541 -121.985630 273 8009ft 227kts
04-Dec-16 17:21 37.503641 -122.061992 293 7230ft 229kts
04-Dec-16 17:22 37.524806 -122.127062 293 5489ft 182kts
04-Dec-16 17:23 37.541622 -122.179309 292 3975ft 146kts
04-Dec-16 17:24 37.557311 -122.222026 295 2880ft 124kts
04-Dec-16 17:25 37.572754 -122.260930 299 1485ft 120kts
04-Dec-16 17:26 37.588975 -122.296308 292 1079ft 115kts
04-Dec-16 17:27 37.603080 -122.331655 293 544ft 115kts
04-Dec-16 17:28 37.616672 -122.364593 294 25ft 89kts
04-Dec-16 17:29 37.625915 -122.386856 298 24ft 44kts
04-Dec-16 17:30 37.630731 -122.392471 339 24ft 17kts
04-Dec-16 17:31 37.633640 -122.391360 48 24ft 16kts
04-Dec-16 17:32 37.635005 -122.390015 28 24ft 0kts
04-Dec-16 17:33 37.635005 -122.390015 28 24ft 0kts
04-Dec-16 17:34 37.635005 -122.390015 28 24ft 0kts

Navigation Log

Ident Type
Flight plan parsing failed, navigation log unavailable